createdAt,value
2022-08-22T00:01:06.310Z,39.40
2022-08-22T00:02:42.499Z,40.20
2022-08-22T00:02:45.719Z,40.30
2022-08-22T00:03:39.007Z,38.70
2022-08-22T00:06:15.969Z,38.50
2022-08-22T00:08:49.570Z,38.60
2022-08-22T00:11:19.511Z,38.40
2022-08-22T00:13:49.707Z,38.50
2022-08-22T00:16:30.771Z,38.50
2022-08-22T00:19:08.756Z,38.70
2022-08-22T00:21:38.628Z,38.90
2022-08-22T00:24:19.092Z,39.00
2022-08-22T00:27:15.264Z,39.20
2022-08-22T00:29:51.412Z,39.20
2022-08-22T00:32:37.815Z,39.30
2022-08-22T00:35:07.841Z,39.20
2022-08-22T00:37:57.877Z,39.20
2022-08-22T00:40:43.574Z,39.10
2022-08-22T00:43:10.405Z,39.10
2022-08-22T00:45:37.293Z,39.10
2022-08-22T00:48:22.700Z,39.10
2022-08-22T00:51:09.135Z,39.10
2022-08-22T00:53:55.036Z,39.10
2022-08-22T00:56:40.918Z,39.10
2022-08-22T00:59:32.273Z,39.10
2022-08-22T01:02:17.579Z,39.10
2022-08-22T01:05:02.540Z,39.00
2022-08-22T01:07:51.830Z,39.00
2022-08-22T01:10:26.835Z,39.00
2022-08-22T01:13:10.999Z,38.90
2022-08-22T01:15:38.147Z,38.90
2022-08-22T01:18:23.635Z,38.80
2022-08-22T01:20:59.784Z,38.70
2022-08-22T01:23:41.709Z,38.70
2022-08-22T01:26:31.829Z,38.80
2022-08-22T01:29:07.970Z,38.70
2022-08-22T01:31:37.925Z,38.80
2022-08-22T01:34:16.800Z,38.70
2022-08-22T01:37:02.163Z,38.70
2022-08-22T01:39:47.856Z,38.60
2022-08-22T01:42:53.443Z,38.50
2022-08-22T01:45:32.037Z,38.60
2022-08-22T01:48:13.329Z,38.60
2022-08-22T01:51:13.229Z,38.60
2022-08-22T01:53:44.900Z,38.60
2022-08-22T01:56:19.491Z,38.50
2022-08-22T01:58:55.579Z,38.50
2022-08-22T02:01:28.695Z,38.50
2022-08-22T02:03:55.762Z,38.50
2022-08-22T02:06:32.496Z,38.60
2022-08-22T02:09:04.500Z,38.30
2022-08-22T02:11:44.711Z,37.90
2022-08-22T02:14:17.628Z,37.90
2022-08-22T02:16:46.244Z,38.10
2022-08-22T02:19:14.375Z,38.30
2022-08-22T02:21:45.075Z,38.30
2022-08-22T02:24:19.370Z,38.40
2022-08-22T02:27:04.803Z,38.50
2022-08-22T02:29:48.262Z,38.40
2022-08-22T02:32:20.827Z,38.40
2022-08-22T02:34:48.704Z,38.40
2022-08-22T02:37:22.154Z,38.40
2022-08-22T02:39:49.036Z,38.50
2022-08-22T02:42:22.262Z,38.70
2022-08-22T02:45:03.594Z,38.80
2022-08-22T02:47:41.927Z,38.80
2022-08-22T02:50:21.486Z,38.80
2022-08-22T02:53:00.326Z,38.70
2022-08-22T02:55:35.133Z,38.50
2022-08-22T02:58:05.192Z,38.50
2022-08-22T03:00:42.654Z,38.50
2022-08-22T03:03:17.643Z,38.60
2022-08-22T03:05:44.489Z,38.50
2022-08-22T03:08:21.579Z,38.60
2022-08-22T03:11:01.729Z,38.60
2022-08-22T03:13:41.338Z,38.50
2022-08-22T03:16:15.568Z,38.40
2022-08-22T03:18:44.239Z,38.60
2022-08-22T03:21:31.384Z,38.70
2022-08-22T03:24:11.178Z,38.70
2022-08-22T03:26:45.335Z,38.70
2022-08-22T03:29:15.640Z,38.60
2022-08-22T03:32:03.247Z,38.30
2022-08-22T03:34:30.351Z,38.30
2022-08-22T03:37:09.604Z,38.20
2022-08-22T03:39:46.602Z,38.20
2022-08-22T03:42:16.437Z,37.90
2022-08-22T03:44:51.736Z,38.10
2022-08-22T03:47:21.356Z,38.20
2022-08-22T03:49:55.602Z,38.30
2022-08-22T03:52:30.913Z,38.50
2022-08-22T03:55:33.319Z,38.50
2022-08-22T03:58:27.389Z,38.40
2022-08-22T04:00:58.148Z,38.10
2022-08-22T04:03:42.923Z,37.90
2022-08-22T04:06:25.407Z,38.00
2022-08-22T04:09:03.254Z,38.10
2022-08-22T04:11:52.743Z,38.20
2022-08-22T04:14:25.642Z,38.30
2022-08-22T04:17:11.479Z,38.20
2022-08-22T04:19:44.430Z,38.30
2022-08-22T04:22:29.779Z,38.30
2022-08-22T04:24:56.623Z,38.40
2022-08-22T04:27:26.267Z,38.20
2022-08-22T04:29:53.129Z,38.20
2022-08-22T04:32:31.729Z,38.40
2022-08-22T04:35:03.589Z,38.50
2022-08-22T04:37:36.597Z,38.40
2022-08-22T04:40:09.840Z,38.30
2022-08-22T04:42:40.542Z,38.50
2022-08-22T04:45:13.254Z,38.50
2022-08-22T04:47:56.764Z,38.50
2022-08-22T04:50:29.106Z,38.50
2022-08-22T04:53:12.593Z,38.50
2022-08-22T04:55:54.573Z,38.30
2022-08-22T04:58:31.795Z,38.20
2022-08-22T05:01:05.059Z,38.20
2022-08-22T05:03:33.945Z,38.20
2022-08-22T05:06:02.499Z,38.10
2022-08-22T05:08:32.775Z,38.20
2022-08-22T05:11:01.473Z,37.80
2022-08-22T05:13:30.659Z,37.80
2022-08-22T05:15:59.620Z,38.30
2022-08-22T05:18:30.015Z,38.80
2022-08-22T05:20:59.557Z,38.80
2022-08-22T05:23:38.340Z,38.90
2022-08-22T05:26:06.433Z,38.90
2022-08-22T05:28:38.999Z,38.70
2022-08-22T05:31:08.552Z,38.70
2022-08-22T05:33:35.484Z,38.60
2022-08-22T05:36:05.689Z,38.70
2022-08-22T05:38:34.663Z,38.70
2022-08-22T05:41:05.177Z,38.70
2022-08-22T05:43:34.794Z,38.50
2022-08-22T05:46:02.534Z,38.60
2022-08-22T05:48:37.979Z,38.90
2022-08-22T05:51:21.639Z,39.10
2022-08-22T05:53:51.014Z,39.40
2022-08-22T05:56:21.971Z,39.70
2022-08-22T05:58:48.920Z,39.80
2022-08-22T06:01:16.443Z,39.90
2022-08-22T06:04:06.940Z,39.90
2022-08-22T06:06:38.147Z,40.00
2022-08-22T06:09:08.156Z,40.00
2022-08-22T06:11:39.712Z,40.20
2022-08-22T06:14:13.019Z,40.30
2022-08-22T06:16:49.648Z,40.20
2022-08-22T06:19:19.548Z,40.20
2022-08-22T06:21:49.313Z,40.20
2022-08-22T06:24:21.395Z,40.30
2022-08-22T06:26:51.282Z,40.50
2022-08-22T06:29:41.168Z,40.50
2022-08-22T06:32:12.394Z,40.40
2022-08-22T06:34:41.266Z,40.80
2022-08-22T06:37:10.685Z,40.80
2022-08-22T06:39:40.297Z,41.10
2022-08-22T06:42:15.853Z,41.50
2022-08-22T06:44:43.484Z,41.40
2022-08-22T06:47:14.352Z,41.60
2022-08-22T06:49:42.660Z,42.20
2022-08-22T06:52:12.236Z,42.30
2022-08-22T06:54:43.529Z,42.40
2022-08-22T06:57:33.653Z,42.50
2022-08-22T07:00:02.199Z,42.40
2022-08-22T07:02:33.386Z,42.80
2022-08-22T07:05:00.582Z,42.70
2022-08-22T07:07:27.842Z,43.00
2022-08-22T07:09:56.768Z,43.40
2022-08-22T07:12:30.088Z,43.80
2022-08-22T07:15:18.596Z,44.20
2022-08-22T07:17:50.394Z,44.40
2022-08-22T07:20:25.580Z,44.90
2022-08-22T07:22:55.004Z,44.90
2022-08-22T07:25:24.425Z,45.10
2022-08-22T07:28:09.003Z,45.20
2022-08-22T07:30:55.043Z,45.40
2022-08-22T07:34:00.669Z,45.80
2022-08-22T07:36:36.068Z,46.10
2022-08-22T07:39:26.380Z,46.40
2022-08-22T07:42:05.020Z,46.60
2022-08-22T07:44:35.424Z,46.90
2022-08-22T07:47:06.019Z,47.20
2022-08-22T07:49:36.012Z,47.30
2022-08-22T07:52:08.383Z,47.50
2022-08-22T07:54:41.713Z,47.60
2022-08-22T07:57:22.616Z,47.80
2022-08-22T07:59:53.662Z,47.80
2022-08-22T08:02:21.386Z,48.00
2022-08-22T08:04:52.857Z,48.30
2022-08-22T08:07:22.187Z,48.50
2022-08-22T08:09:51.284Z,48.50
2022-08-22T08:12:20.752Z,48.90
2022-08-22T08:14:50.712Z,49.00
2022-08-22T08:17:32.031Z,48.90
2022-08-22T08:20:02.946Z,49.00
2022-08-22T08:22:30.258Z,48.80
2022-08-22T08:24:58.515Z,48.70
2022-08-22T08:27:50.204Z,48.50
2022-08-22T08:30:47.324Z,48.50
2022-08-22T08:33:25.563Z,48.10
2022-08-22T08:36:13.844Z,48.00
2022-08-22T08:38:55.987Z,47.80
2022-08-22T08:41:45.822Z,47.70
2022-08-22T08:44:27.676Z,47.70
2022-08-22T08:47:12.506Z,48.00
2022-08-22T08:49:43.126Z,48.20
2022-08-22T08:52:16.220Z,48.00
2022-08-22T08:54:46.225Z,48.20
2022-08-22T08:57:23.083Z,48.10
2022-08-22T08:59:58.885Z,47.90
2022-08-22T09:02:25.911Z,48.00
2022-08-22T09:05:03.743Z,48.20
2022-08-22T09:07:33.145Z,48.40
2022-08-22T09:10:22.570Z,48.60
2022-08-22T09:13:12.323Z,48.50
2022-08-22T09:15:58.754Z,48.70
2022-08-22T09:18:48.534Z,48.90
2022-08-22T09:21:30.486Z,48.80
2022-08-22T09:24:16.410Z,49.10
2022-08-22T09:26:43.232Z,49.30
2022-08-22T09:29:34.412Z,49.20
2022-08-22T09:32:36.985Z,49.20
2022-08-22T09:35:03.828Z,49.00
2022-08-22T09:37:41.654Z,49.00
2022-08-22T09:40:29.455Z,49.00
2022-08-22T09:43:09.064Z,48.70
2022-08-22T09:45:40.731Z,48.30
2022-08-22T09:48:12.794Z,47.80
2022-08-22T09:50:46.852Z,47.60
2022-08-22T09:53:33.607Z,47.30
2022-08-22T09:56:15.761Z,47.10
2022-08-22T09:58:46.385Z,46.90
2022-08-22T10:01:19.127Z,46.60
2022-08-22T10:03:46.020Z,46.20
2022-08-22T10:06:18.629Z,46.00
2022-08-22T10:08:48.733Z,45.80
2022-08-22T10:11:19.010Z,45.40
2022-08-22T10:13:57.312Z,45.40
2022-08-22T10:16:46.281Z,45.20
2022-08-22T10:19:24.511Z,45.20
2022-08-22T10:22:11.073Z,45.40
2022-08-22T10:24:48.246Z,45.30
2022-08-22T10:27:29.687Z,45.50
2022-08-22T10:30:03.991Z,45.20
2022-08-22T10:32:36.328Z,45.20
2022-08-22T10:35:27.983Z,45.40
2022-08-22T10:38:05.544Z,45.10
2022-08-22T10:40:36.753Z,45.00
2022-08-22T10:43:40.823Z,44.90
2022-08-22T10:46:13.751Z,45.00
2022-08-22T10:48:55.909Z,44.70
2022-08-22T10:51:29.818Z,44.60
2022-08-22T10:54:19.902Z,44.60
2022-08-22T10:56:53.130Z,44.60
2022-08-22T10:59:23.667Z,44.30
2022-08-22T11:01:59.498Z,44.00
2022-08-22T11:04:49.309Z,43.90
2022-08-22T11:07:35.526Z,43.80
2022-08-22T11:10:05.427Z,43.90
2022-08-22T11:12:36.900Z,44.10
2022-08-22T11:15:15.435Z,44.20
2022-08-22T11:18:14.783Z,44.00
2022-08-22T11:21:00.574Z,43.80
2022-08-22T11:23:38.247Z,43.70
2022-08-22T11:26:30.011Z,43.70
2022-08-22T11:29:24.632Z,43.80
2022-08-22T11:32:14.351Z,43.30
2022-08-22T11:34:48.049Z,42.70
2022-08-22T11:37:23.849Z,43.30
2022-08-22T11:40:00.056Z,43.10
2022-08-22T11:42:31.371Z,43.10
2022-08-22T11:45:02.270Z,43.40
2022-08-22T11:47:30.743Z,43.70
2022-08-22T11:50:22.083Z,43.80
2022-08-22T11:52:52.645Z,43.90
2022-08-22T11:55:34.861Z,43.50
2022-08-22T11:58:20.948Z,43.70
2022-08-22T12:01:03.355Z,43.50
2022-08-22T12:03:58.052Z,43.70
2022-08-22T12:06:41.977Z,43.70
2022-08-22T12:09:08.786Z,43.70
2022-08-22T12:11:44.854Z,43.50
2022-08-22T12:14:31.601Z,43.50
2022-08-22T12:16:58.410Z,43.50
2022-08-22T12:19:42.132Z,43.50
2022-08-22T12:22:38.772Z,43.70
2022-08-22T12:25:44.526Z,43.80
2022-08-22T12:28:23.866Z,44.00
2022-08-22T12:31:10.054Z,43.80
2022-08-22T12:33:42.693Z,43.80
2022-08-22T12:36:34.449Z,43.60
2022-08-22T12:39:20.437Z,43.40
2022-08-22T12:41:48.191Z,43.80
2022-08-22T12:44:34.156Z,43.60
2022-08-22T12:47:14.935Z,43.40
2022-08-22T12:49:49.865Z,43.10
2022-08-22T12:52:20.073Z,43.00
2022-08-22T12:54:48.388Z,42.90
2022-08-22T12:57:44.646Z,43.10
2022-08-22T13:00:32.226Z,43.10
2022-08-22T13:03:01.906Z,43.00
2022-08-22T13:05:30.493Z,43.00
2022-08-22T13:08:04.521Z,43.00
2022-08-22T13:10:44.803Z,42.70
2022-08-22T13:13:14.797Z,42.50
2022-08-22T13:15:54.048Z,42.60
2022-08-22T13:18:30.538Z,42.70
2022-08-22T13:20:59.837Z,42.40
2022-08-22T13:23:30.190Z,42.50
2022-08-22T13:26:01.185Z,42.40
2022-08-22T13:28:29.443Z,42.30
2022-08-22T13:30:58.618Z,42.00
2022-08-22T13:33:37.609Z,42.20
2022-08-22T13:36:10.866Z,42.10
2022-08-22T13:38:57.852Z,42.10
2022-08-22T13:41:28.486Z,42.20
2022-08-22T13:44:16.416Z,41.90
2022-08-22T13:47:13.039Z,42.10
2022-08-22T13:49:32.884Z,42.00
2022-08-22T13:52:08.320Z,41.80
2022-08-22T13:54:55.759Z,41.80
2022-08-22T13:57:25.570Z,42.10
2022-08-22T14:00:05.896Z,42.00
2022-08-22T14:02:52.116Z,42.30
2022-08-22T14:05:24.937Z,42.30
2022-08-22T14:07:58.246Z,42.30
2022-08-22T14:10:28.430Z,42.20
2022-08-22T14:12:55.635Z,42.40
2022-08-22T14:15:25.064Z,42.10
2022-08-22T14:17:55.253Z,42.40
2022-08-22T14:20:32.111Z,42.50
2022-08-22T14:23:04.017Z,42.30
2022-08-22T14:25:35.431Z,42.40
2022-08-22T14:28:09.427Z,42.50
2022-08-22T14:30:54.937Z,42.50
2022-08-22T14:33:28.323Z,42.30
2022-08-22T14:36:02.032Z,42.30
2022-08-22T14:38:31.924Z,42.10
2022-08-22T14:41:13.599Z,42.20
2022-08-22T14:43:50.720Z,42.20
2022-08-22T14:46:26.726Z,42.20
2022-08-22T14:49:03.195Z,42.00
2022-08-22T14:51:30.046Z,41.90
2022-08-22T14:54:29.830Z,41.80
2022-08-22T14:56:57.349Z,41.90
2022-08-22T14:59:42.665Z,41.40
2022-08-22T15:02:15.949Z,41.50
2022-08-22T15:04:45.674Z,41.40
2022-08-22T15:07:23.969Z,41.40
2022-08-22T15:09:53.413Z,41.30
2022-08-22T15:12:26.300Z,41.60
2022-08-22T15:14:54.575Z,41.60
2022-08-22T15:17:39.151Z,41.80
2022-08-22T15:20:11.114Z,41.90
2022-08-22T15:22:40.074Z,41.60
2022-08-22T15:25:15.744Z,41.80
2022-08-22T15:27:46.948Z,42.00
2022-08-22T15:30:20.514Z,42.10
2022-08-22T15:32:49.299Z,42.10
2022-08-22T15:35:26.665Z,42.00
2022-08-22T15:37:55.889Z,42.10
2022-08-22T15:40:35.384Z,42.10
2022-08-22T15:43:26.276Z,42.00
2022-08-22T15:46:17.847Z,41.60
2022-08-22T15:48:54.671Z,41.80
2022-08-22T15:51:52.581Z,41.20
2022-08-22T15:54:46.991Z,41.20
2022-08-22T15:57:28.369Z,41.10
2022-08-22T15:59:57.198Z,41.00
2022-08-22T16:02:34.910Z,41.20
2022-08-22T16:05:11.550Z,41.30
2022-08-22T16:07:38.378Z,41.30
2022-08-22T16:10:10.776Z,41.40
2022-08-22T16:12:47.891Z,41.60
2022-08-22T16:15:33.308Z,41.90
2022-08-22T16:18:00.249Z,41.80
2022-08-22T16:20:27.084Z,41.80
2022-08-22T16:22:57.061Z,41.90
2022-08-22T16:25:44.183Z,41.80
2022-08-22T16:28:41.762Z,42.00
2022-08-22T16:31:33.680Z,41.70
2022-08-22T16:34:15.759Z,41.60
2022-08-22T16:36:48.523Z,41.50
2022-08-22T16:39:21.592Z,41.80
2022-08-22T16:41:56.501Z,41.90
2022-08-22T16:44:29.386Z,42.10
2022-08-22T16:47:16.659Z,41.90
2022-08-22T16:49:49.649Z,41.80
2022-08-22T16:52:25.684Z,41.90
2022-08-22T16:54:53.839Z,41.70
2022-08-22T16:57:23.579Z,41.70
2022-08-22T16:59:56.434Z,41.60
2022-08-22T17:02:42.960Z,41.40
2022-08-22T17:05:14.075Z,41.40
2022-08-22T17:08:01.487Z,41.40
2022-08-22T17:10:34.439Z,41.50
2022-08-22T17:13:06.458Z,41.60
2022-08-22T17:15:33.298Z,41.60
2022-08-22T17:18:00.294Z,41.50
2022-08-22T17:20:47.507Z,41.40
2022-08-22T17:23:23.509Z,41.40
2022-08-22T17:25:59.109Z,41.50
2022-08-22T17:28:40.234Z,41.40
2022-08-22T17:31:21.381Z,41.40
2022-08-22T17:33:53.331Z,41.40
2022-08-22T17:36:29.445Z,41.40
2022-08-22T17:39:12.582Z,41.50
2022-08-22T17:41:45.556Z,41.60
2022-08-22T17:44:18.008Z,41.60
2022-08-22T17:46:49.035Z,41.60
2022-08-22T17:49:21.200Z,41.50
2022-08-22T17:52:10.300Z,41.30
2022-08-22T17:54:43.515Z,41.30
2022-08-22T17:57:12.417Z,41.20
2022-08-22T17:59:50.795Z,41.10
2022-08-22T18:02:21.373Z,41.10
2022-08-22T18:04:52.379Z,41.10
2022-08-22T18:07:28.555Z,41.30
2022-08-22T18:10:07.761Z,41.20
2022-08-22T18:12:34.710Z,41.00
2022-08-22T18:15:04.412Z,41.00
2022-08-22T18:17:33.982Z,41.00
2022-08-22T18:20:09.074Z,41.00
2022-08-22T18:22:38.994Z,41.10
2022-08-22T18:25:11.052Z,41.00
2022-08-22T18:27:59.501Z,41.20
2022-08-22T18:30:28.743Z,41.30
2022-08-22T18:33:14.981Z,41.40
2022-08-22T18:36:14.880Z,41.20
2022-08-22T18:38:50.119Z,41.30
2022-08-22T18:41:46.100Z,41.20
2022-08-22T18:44:19.534Z,41.20
2022-08-22T18:46:48.118Z,41.40
2022-08-22T18:49:19.739Z,41.20
2022-08-22T18:52:05.460Z,41.20
2022-08-22T18:54:44.437Z,41.20
2022-08-22T18:57:31.653Z,41.40
2022-08-22T19:00:17.099Z,41.40
2022-08-22T19:02:51.167Z,41.40
2022-08-22T19:05:41.822Z,41.40
2022-08-22T19:08:28.890Z,41.30
2022-08-22T19:11:04.423Z,41.30
2022-08-22T19:13:37.421Z,41.30
2022-08-22T19:16:13.270Z,41.20
2022-08-22T19:18:42.747Z,41.30
2022-08-22T19:21:35.872Z,41.40
2022-08-22T19:24:12.118Z,41.30
2022-08-22T19:26:44.162Z,41.00
2022-08-22T19:29:16.858Z,41.00
2022-08-22T19:31:53.435Z,40.90
2022-08-22T19:34:30.179Z,40.90
2022-08-22T19:37:09.106Z,41.00
2022-08-22T19:39:42.266Z,41.00
2022-08-22T19:42:21.209Z,41.10
2022-08-22T19:44:54.096Z,41.00
2022-08-22T19:47:20.975Z,41.20
2022-08-22T19:49:50.657Z,41.30
2022-08-22T19:52:39.648Z,41.40
2022-08-22T19:55:09.654Z,41.50
2022-08-22T19:57:42.269Z,41.60
2022-08-22T20:00:13.943Z,41.50
2022-08-22T20:02:59.924Z,41.50
2022-08-22T20:05:35.493Z,41.40
2022-08-22T20:08:08.031Z,41.40
2022-08-22T20:10:47.100Z,41.40
2022-08-22T20:13:25.322Z,41.20
2022-08-22T20:16:03.172Z,41.10
2022-08-22T20:19:00.145Z,41.30
2022-08-22T20:21:42.423Z,41.20
2022-08-22T20:24:13.160Z,41.20
2022-08-22T20:26:57.642Z,41.30
2022-08-22T20:29:37.674Z,41.20
2022-08-22T20:32:06.507Z,41.10
2022-08-22T20:34:35.978Z,41.20
2022-08-22T20:37:27.090Z,41.00
2022-08-22T20:40:21.043Z,40.90
2022-08-22T20:43:02.013Z,40.90
2022-08-22T20:45:40.596Z,40.90
2022-08-22T20:48:10.241Z,40.90
2022-08-22T20:50:37.135Z,41.00
2022-08-22T20:53:17.037Z,41.20
2022-08-22T20:55:55.177Z,41.10
2022-08-22T20:58:25.187Z,41.20
2022-08-22T21:00:55.769Z,41.20
2022-08-22T21:03:32.677Z,41.20
2022-08-22T21:06:13.597Z,41.20
2022-08-22T21:08:41.442Z,41.20
2022-08-22T21:11:27.758Z,41.20
2022-08-22T21:13:55.683Z,41.20
2022-08-22T21:16:31.229Z,41.30
2022-08-22T21:18:59.296Z,41.40
2022-08-22T21:21:27.403Z,41.40
2022-08-22T21:24:00.365Z,41.50
2022-08-22T21:26:27.998Z,41.50
2022-08-22T21:29:15.906Z,41.50
2022-08-22T21:31:42.835Z,41.50
2022-08-22T21:34:14.763Z,41.60
2022-08-22T21:36:42.119Z,41.60
2022-08-22T21:39:25.326Z,41.60
2022-08-22T21:42:14.298Z,41.60
2022-08-22T21:44:49.926Z,41.50
2022-08-22T21:47:17.209Z,41.50
2022-08-22T21:50:12.379Z,41.40
2022-08-22T21:52:41.005Z,41.40
2022-08-22T21:55:13.688Z,41.20
2022-08-22T21:57:40.552Z,41.30
2022-08-22T22:00:27.567Z,41.40
2022-08-22T22:02:59.025Z,41.40
2022-08-22T22:05:25.948Z,41.50
2022-08-22T22:07:52.856Z,41.40
2022-08-22T22:10:20.711Z,41.30
2022-08-22T22:12:48.411Z,41.30
2022-08-22T22:15:16.825Z,41.30
2022-08-22T22:17:43.665Z,41.20
2022-08-22T22:20:11.354Z,41.20
2022-08-22T22:22:43.184Z,41.00
2022-08-22T22:25:40.210Z,41.10
2022-08-22T22:28:02.416Z,41.10
2022-08-22T22:30:29.728Z,41.10
2022-08-22T22:32:56.565Z,41.20
2022-08-22T22:35:23.441Z,41.20
2022-08-22T22:37:50.321Z,41.10
2022-08-22T22:40:17.232Z,41.10
2022-08-22T22:42:44.264Z,40.90
2022-08-22T22:45:11.290Z,41.00
2022-08-22T22:47:38.243Z,40.90
2022-08-22T22:50:05.684Z,41.00
2022-08-22T22:52:32.790Z,41.00
2022-08-22T22:55:05.673Z,41.00
2022-08-22T22:57:32.520Z,40.70
2022-08-22T23:00:11.125Z,40.70
2022-08-22T23:02:37.991Z,40.50
2022-08-22T23:05:05.312Z,40.60
2022-08-22T23:07:33.756Z,40.30
2022-08-22T23:10:01.424Z,40.30
2022-08-22T23:12:29.222Z,40.50
2022-08-22T23:14:56.179Z,40.20
2022-08-22T23:17:23.114Z,40.40
2022-08-22T23:19:51.085Z,40.50
2022-08-22T23:22:18.295Z,40.50
2022-08-22T23:24:45.347Z,40.50
2022-08-22T23:27:12.300Z,40.60
2022-08-22T23:29:41.146Z,40.80
2022-08-22T23:32:09.171Z,40.70
2022-08-22T23:34:37.802Z,40.80
2022-08-22T23:37:06.427Z,40.90
2022-08-22T23:39:34.617Z,41.00
2022-08-22T23:42:02.489Z,41.20
2022-08-22T23:44:30.852Z,41.20
2022-08-22T23:46:58.844Z,41.20
2022-08-22T23:49:26.256Z,41.00
2022-08-22T23:51:53.421Z,41.00
2022-08-22T23:54:20.630Z,41.00
2022-08-22T23:56:49.007Z,40.70
2022-08-22T23:59:18.158Z,40.90
